Time;durP1;ratioP1;P1;durP2;ratioP2;P2;SDS_P1;SDS_P2;PMS_P1;PMS_P2;Temp;Humidity;BMP_temperature;BMP_pressure;BME280_temperature;BME280_humidity;BME280_pressure;Samples;Min_cycle;Max_cycle;Signal;HPM_P1;HPM_P2
2022/04/04 00:01:06;;;;;;;2.78;1.27;;;;;;;-148.56;100.00;61375.16;4938911;28;20462;-29
2022/04/04 00:03:32;;;;;;;1.55;1.23;;;;;;;-148.56;100.00;61375.16;4926368;28;20082;-31
2022/04/04 00:05:57;;;;;;;2.28;1.30;;;;;;;-148.56;100.00;61375.16;4927123;28;20031;-27
2022/04/04 00:08:22;;;;;;;2.13;1.40;;;;;;;-148.56;100.00;61375.16;4936823;28;20027;-28
2022/04/04 00:10:48;;;;;;;2.42;1.40;;;;;;;-148.56;100.00;61375.16;4926731;28;20032;-28
2022/04/04 00:13:13;;;;;;;1.88;1.10;;;;;;;-148.56;100.00;61375.16;4928095;28;20573;-29
2022/04/04 00:15:39;;;;;;;1.65;1.00;;;;;;;-148.56;100.00;61375.16;4930367;28;20445;-29
2022/04/04 00:18:10;;;;;;;3.20;1.30;;;;;;;-148.56;100.00;61375.16;4929496;28;20027;-30
2022/04/04 00:20:36;;;;;;;1.88;1.02;;;;;;;-148.56;100.00;61375.16;4929835;28;20037;-29
2022/04/04 00:23:01;;;;;;;0.85;0.75;;;;;;;-148.56;100.00;61375.16;4928713;28;20031;-30
2022/04/04 00:25:26;;;;;;;2.20;1.20;;;;;;;-148.56;100.00;61375.16;4929512;28;20023;-29
2022/04/04 00:27:52;;;;;;;1.58;1.00;;;;;;;-148.56;100.00;61375.16;4924065;28;20046;-30
2022/04/04 00:30:17;;;;;;;2.20;1.05;;;;;;;-148.56;100.00;61375.16;4926765;28;20023;-28
2022/04/04 00:32:43;;;;;;;1.73;1.20;;;;;;;-148.56;100.00;61375.16;4928088;28;20047;-28
2022/04/04 00:35:08;;;;;;;1.17;0.98;;;;;;;-148.56;100.00;61375.16;4924273;28;20023;-28
2022/04/04 00:37:34;;;;;;;1.58;0.90;;;;;;;-148.56;100.00;61375.16;4926414;28;20042;-29
2022/04/04 00:39:59;;;;;;;1.33;0.93;;;;;;;-148.56;100.00;61375.16;4927916;28;20043;-27
2022/04/04 00:42:25;;;;;;;2.03;1.05;;;;;;;-148.56;100.00;61375.16;4922463;28;20039;-28
2022/04/04 00:44:51;;;;;;;1.35;1.08;;;;;;;-148.56;100.00;61375.16;4926113;28;20094;-26
2022/04/04 00:47:17;;;;;;;2.53;1.40;;;;;;;-148.56;100.00;61375.16;4928709;28;20038;-28
2022/04/04 00:49:42;;;;;;;1.45;1.10;;;;;;;-148.56;100.00;61375.16;4924641;28;20043;-29
2022/04/04 00:52:08;;;;;;;7.55;1.20;;;;;;;-148.56;100.00;61375.16;4922232;28;22586;-29
2022/04/04 00:54:34;;;;;;;1.50;1.20;;;;;;;-148.56;100.00;61375.16;4926769;28;20070;-27
2022/04/04 00:57:02;;;;;;;1.42;1.08;;;;;;;-148.56;100.00;61375.16;4916396;28;20712;-26
2022/04/04 00:59:28;;;;;;;1.75;1.15;;;;;;;-148.56;100.00;61375.16;4893719;28;20725;-28
2022/04/04 01:01:53;;;;;;;1.77;1.00;;;;;;;-148.56;100.00;61375.16;4890545;28;20036;-26
2022/04/04 01:04:18;;;;;;;1.02;0.80;;;;;;;-148.56;100.00;61375.16;4897778;28;20043;-27
2022/04/04 01:06:44;;;;;;;1.73;1.10;;;;;;;-148.56;100.00;61375.16;4895147;28;20035;-29
2022/04/04 01:09:14;;;;;;;1.52;0.98;;;;;;;-148.56;100.00;61375.16;4895875;28;20049;-27
2022/04/04 01:12:01;;;;;;;1.15;1.05;;;;;;;-148.56;100.00;61375.16;4892869;28;20142;-28
2022/04/04 01:14:27;;;;;;;1.73;1.08;;;;;;;-148.56;100.00;61375.16;4897141;28;20109;-27
2022/04/04 01:16:52;;;;;;;1.38;1.10;;;;;;;-148.56;100.00;61375.16;4893357;28;21268;-30
2022/04/04 01:19:17;;;;;;;1.40;1.00;;;;;;;-148.56;100.00;61375.16;4895236;28;20141;-28
2022/04/04 01:21:43;;;;;;;1.98;1.13;;;;;;;-148.56;100.00;61375.16;4895424;28;20038;-28
2022/04/04 01:24:15;;;;;;;1.70;1.30;;;;;;;-148.56;100.00;61375.16;4908167;28;20883;-29
2022/04/04 01:26:47;;;;;;;0.90;0.80;;;;;;;-148.56;100.00;61375.16;4932851;28;20107;-30
2022/04/04 01:29:13;;;;;;;1.75;0.90;;;;;;;-148.56;100.00;61375.16;4924746;28;20114;-26
2022/04/04 01:31:38;;;;;;;1.90;1.25;;;;;;;-148.56;100.00;61375.16;4928670;28;20437;-28
2022/04/04 01:34:04;;;;;;;1.35;0.80;;;;;;;-148.56;100.00;61375.16;4901185;28;20605;-28
2022/04/04 01:36:29;;;;;;;1.23;0.80;;;;;;;-148.56;100.00;61375.16;4892991;28;20039;-27
2022/04/04 01:38:54;;;;;;;1.38;0.90;;;;;;;-148.56;100.00;61375.16;4894590;28;20024;-26
2022/04/04 01:41:20;;;;;;;1.65;0.82;;;;;;;-148.56;100.00;61375.16;4894107;28;20422;-29
2022/04/04 01:43:45;;;;;;;1.52;0.98;;;;;;;-148.56;100.00;61375.16;4894710;28;20036;-29
2022/04/04 01:46:29;;;;;;;1.27;0.98;;;;;;;-148.56;100.00;61375.16;4894617;28;20031;-28
2022/04/04 01:48:56;;;;;;;0.88;0.75;;;;;;;-148.56;100.00;61375.16;4892432;28;20035;-27
2022/04/04 01:51:22;;;;;;;1.42;1.00;;;;;;;-148.56;100.00;61375.16;4894710;28;20028;-28
2022/04/04 01:53:47;;;;;;;1.33;0.93;;;;;;;-148.56;100.00;61375.16;4891449;28;22020;-27
2022/04/04 01:56:13;;;;;;;1.05;0.80;;;;;;;-148.56;100.00;61375.16;4892987;28;20419;-29
2022/04/04 01:58:39;;;;;;;1.30;0.80;;;;;;;-148.56;100.00;61375.16;4919521;28;20028;-28
2022/04/04 02:01:14;;;;;;;1.35;0.95;;;;;;;-148.56;100.00;61375.16;4925248;28;22339;-30
2022/04/04 02:03:40;;;;;;;1.40;0.90;;;;;;;-148.56;100.00;61375.16;4924467;28;20034;-27
2022/04/04 02:06:05;;;;;;;1.45;0.95;;;;;;;-148.56;100.00;61375.16;4929298;28;20047;-28
2022/04/04 02:08:31;;;;;;;1.33;0.90;;;;;;;-148.56;100.00;61375.16;4932186;28;20483;-27
2022/04/04 02:10:57;;;;;;;1.02;0.90;;;;;;;-148.56;100.00;61375.16;4931859;28;20119;-28
2022/04/04 02:13:25;;;;;;;0.90;0.80;;;;;;;-148.56;100.00;61375.16;4927473;28;20074;-29
2022/04/04 02:15:52;;;;;;;1.05;0.93;;;;;;;-148.56;100.00;61375.16;4930661;28;20070;-29
2022/04/04 02:18:18;;;;;;;1.25;0.80;;;;;;;-148.56;100.00;61375.16;4930649;28;20090;-28
2022/04/04 02:20:43;;;;;;;0.70;0.70;;;;;;;-148.56;100.00;61375.16;4931890;28;20036;-27
2022/04/04 02:23:08;;;;;;;1.20;1.00;;;;;;;-148.56;100.00;61375.16;4932279;28;20390;-27
2022/04/04 02:25:34;;;;;;;1.30;0.80;;;;;;;-148.56;100.00;61375.16;4930149;28;20050;-26
2022/04/04 02:27:59;;;;;;;1.52;0.95;;;;;;;-148.56;100.00;61375.16;4931749;28;20031;-29
2022/04/04 02:30:25;;;;;;;1.00;0.80;;;;;;;-148.56;100.00;61375.16;4932273;28;20099;-29
2022/04/04 02:32:51;;;;;;;1.10;1.00;;;;;;;-148.56;100.00;61375.16;4929836;28;20034;-28
2022/04/04 02:35:17;;;;;;;1.50;0.90;;;;;;;-148.56;100.00;61375.16;4930327;28;20024;-27
2022/04/04 02:37:43;;;;;;;4.18;0.90;;;;;;;-148.56;100.00;61375.16;4924983;28;20790;-30
2022/04/04 02:40:09;;;;;;;0.75;0.75;;;;;;;-148.56;100.00;61375.16;4925673;28;20131;-28
2022/04/04 02:42:35;;;;;;;1.00;0.70;;;;;;;-148.56;100.00;61375.16;4924010;28;20027;-28
2022/04/04 02:45:00;;;;;;;1.00;0.90;;;;;;;-148.56;100.00;61375.16;4919675;28;20031;-30
2022/04/04 02:47:25;;;;;;;1.95;0.93;;;;;;;-148.56;100.00;61375.16;4939698;28;20039;-31
2022/04/04 02:49:51;;;;;;;1.08;0.77;;;;;;;-148.56;100.00;61375.16;4923580;28;20031;-32
2022/04/04 02:52:16;;;;;;;0.93;0.82;;;;;;;-148.56;100.00;61375.16;4922831;28;20035;-28
2022/04/04 02:54:42;;;;;;;1.17;0.70;;;;;;;-148.56;100.00;61375.16;4926657;28;20489;-29
2022/04/04 02:57:07;;;;;;;4.15;0.80;;;;;;;-148.56;100.00;61375.16;4925926;28;20040;-31
2022/04/04 02:59:33;;;;;;;1.33;0.90;;;;;;;-148.56;100.00;61375.16;4922660;28;20027;-27
2022/04/04 03:01:58;;;;;;;0.75;0.63;;;;;;;-148.56;100.00;61375.16;4925494;28;20036;-26
2022/04/04 03:04:23;;;;;;;0.75;0.63;;;;;;;-148.56;100.00;61375.16;4923346;28;20024;-27
2022/04/04 03:06:49;;;;;;;0.95;0.70;;;;;;;-148.56;100.00;61375.16;4923690;28;20781;-27
2022/04/04 03:09:14;;;;;;;1.20;0.80;;;;;;;-148.56;100.00;61375.16;4922243;28;20062;-27
2022/04/04 03:11:40;;;;;;;1.90;0.90;;;;;;;-148.56;100.00;61375.16;4926935;28;20030;-27
2022/04/04 03:14:06;;;;;;;0.93;0.77;;;;;;;-148.56;100.00;61375.16;4926759;28;20035;-26
2022/04/04 03:16:31;;;;;;;0.82;0.82;;;;;;;-148.56;100.00;61375.16;4922342;28;20031;-27
2022/04/04 03:18:58;;;;;;;0.63;0.60;;;;;;;-148.56;100.00;61375.16;4920126;28;20051;-28
2022/04/04 03:21:24;;;;;;;1.38;0.98;;;;;;;-148.56;100.00;61375.16;4922989;28;20389;-30
2022/04/04 03:23:49;;;;;;;0.93;0.80;;;;;;;-148.56;100.00;61375.16;4924592;28;20039;-27
2022/04/04 03:26:15;;;;;;;1.85;1.00;;;;;;;-148.56;100.00;61375.16;4922912;28;20042;-29
2022/04/04 03:28:41;;;;;;;1.10;0.82;;;;;;;-148.56;100.00;61375.16;4922847;28;20718;-29
2022/04/04 03:31:07;;;;;;;1.20;0.82;;;;;;;-148.56;100.00;61375.16;4922738;28;20055;-30
2022/04/04 03:33:33;;;;;;;0.95;0.63;;;;;;;-148.56;100.00;61375.16;4922271;28;20039;-27
2022/04/04 03:35:58;;;;;;;1.02;0.60;;;;;;;-148.56;100.00;61375.16;4921762;28;20108;-27
2022/04/04 03:38:24;;;;;;;0.95;0.70;;;;;;;-148.56;100.00;61375.16;4922577;28;20028;-28
2022/04/04 03:40:49;;;;;;;2.95;0.68;;;;;;;-148.56;100.00;61375.16;4921510;28;20046;-30
2022/04/04 03:43:15;;;;;;;1.85;1.00;;;;;;;-148.56;100.00;61375.16;4920395;28;20051;-28
2022/04/04 03:45:41;;;;;;;0.63;0.63;;;;;;;-148.56;100.00;61375.16;4926189;28;20028;-28
2022/04/04 03:48:06;;;;;;;0.95;0.73;;;;;;;-148.56;100.00;61375.16;4927499;28;20069;-30
2022/04/04 03:50:32;;;;;;;1.23;0.80;;;;;;;-148.56;100.00;61375.16;4925558;28;20094;-29
2022/04/04 03:52:57;;;;;;;1.13;0.70;;;;;;;-148.56;100.00;61375.16;4930514;28;20039;-27
2022/04/04 03:55:26;;;;;;;1.08;0.70;;;;;;;-148.56;100.00;61375.16;4933121;28;20023;-28
2022/04/04 03:57:51;;;;;;;1.13;0.70;;;;;;;-148.56;100.00;61375.16;4930529;28;20462;-29
2022/04/04 04:00:17;;;;;;;1.65;0.63;;;;;;;-148.56;100.00;61375.16;4929717;28;20051;-26
2022/04/04 04:02:43;;;;;;;0.90;0.80;;;;;;;-148.56;100.00;61375.16;4927828;28;20037;-28
2022/04/04 04:05:09;;;;;;;2.17;0.90;;;;;;;-148.56;100.00;61375.16;4931152;28;20039;-27
2022/04/04 04:07:34;;;;;;;0.70;0.70;;;;;;;-148.56;100.00;61375.16;4930971;28;20027;-27
2022/04/04 04:09:59;;;;;;;0.90;0.80;;;;;;;-148.56;100.00;61375.16;4925466;28;20608;-27
2022/04/04 04:12:25;;;;;;;1.80;0.80;;;;;;;-148.56;100.00;61375.16;4926100;28;20691;-26
2022/04/04 04:14:51;;;;;;;0.90;0.70;;;;;;;-148.56;100.00;61375.16;4932052;28;20517;-27
2022/04/04 04:17:21;;;;;;;0.70;0.60;;;;;;;-148.56;100.00;61375.16;4928631;28;20034;-27
2022/04/04 04:22:30;;;;;;;0.77;0.63;;;;;;;-148.56;100.00;61375.16;4927602;28;20042;-27
2022/04/04 04:24:56;;;;;;;0.60;0.55;;;;;;;-148.56;100.00;61375.16;4932511;28;20023;-29
2022/04/04 04:27:21;;;;;;;0.82;0.73;;;;;;;-148.56;100.00;61375.16;4928920;28;20045;-26
2022/04/04 04:29:47;;;;;;;0.98;0.70;;;;;;;-148.56;100.00;61375.16;4928756;28;20503;-27
2022/04/04 04:32:13;;;;;;;0.90;0.80;;;;;;;-148.56;100.00;61375.16;4928074;28;20917;-28
2022/04/04 04:34:39;;;;;;;0.60;0.60;;;;;;;-148.56;100.00;61375.16;4927390;28;20039;-27
2022/04/04 04:37:05;;;;;;;1.08;0.80;;;;;;;-148.56;100.00;61375.16;4930379;28;20066;-28
2022/04/04 04:39:30;;;;;;;0.93;0.50;;;;;;;-148.56;100.00;61375.16;4932509;28;20032;-27
2022/04/04 04:41:56;;;;;;;1.13;0.70;;;;;;;-148.56;100.00;61375.16;4927075;28;20126;-30
2022/04/04 04:44:21;;;;;;;1.10;0.70;;;;;;;-148.56;100.00;61375.16;4929467;28;20019;-28
2022/04/04 04:46:48;;;;;;;1.02;0.60;;;;;;;-148.56;100.00;61375.16;4933997;28;20027;-27
2022/04/04 04:49:14;;;;;;;0.80;0.60;;;;;;;-148.56;100.00;61375.16;4927967;28;20035;-27
2022/04/04 04:51:41;;;;;;;0.93;0.70;;;;;;;-148.56;100.00;61375.16;4926192;28;20058;-25
2022/04/04 04:54:07;;;;;;;1.42;0.80;;;;;;;-148.56;100.00;61375.16;4926676;28;20038;-28
2022/04/04 04:56:32;;;;;;;1.33;0.77;;;;;;;-148.56;100.00;61375.16;4931325;28;20028;-28
2022/04/04 04:58:58;;;;;;;0.60;0.60;;;;;;;-148.56;100.00;61375.16;4931810;28;20034;-29
2022/04/04 05:01:23;;;;;;;1.00;0.75;;;;;;;-148.56;100.00;61375.16;4929910;28;20039;-26
2022/04/04 05:03:50;;;;;;;0.85;0.60;;;;;;;-148.56;100.00;61375.16;4927424;28;20057;-28
2022/04/04 05:06:15;;;;;;;0.50;0.50;;;;;;;-148.56;100.00;61375.16;4929519;28;20027;-28
2022/04/04 05:08:40;;;;;;;0.65;0.65;;;;;;;-148.56;100.00;61375.16;4926891;28;20045;-30
2022/04/04 05:11:06;;;;;;;0.60;0.60;;;;;;;-148.56;100.00;61375.16;4927874;28;20040;-29
2022/04/04 05:13:32;;;;;;;0.73;0.68;;;;;;;-148.56;100.00;61375.16;4931676;28;20075;-31
2022/04/04 05:15:58;;;;;;;0.70;0.70;;;;;;;-148.56;100.00;61375.16;4928003;28;20036;-30
2022/04/04 05:18:24;;;;;;;1.85;0.70;;;;;;;-148.56;100.00;61375.16;4926687;28;20115;-27
2022/04/04 05:20:50;;;;;;;1.05;0.60;;;;;;;-148.56;100.00;61375.16;4933784;28;20114;-28
2022/04/04 05:23:15;;;;;;;1.65;0.75;;;;;;;-148.56;100.00;61375.16;4928789;28;20027;-26
2022/04/04 05:25:40;;;;;;;0.75;0.63;;;;;;;-148.56;100.00;61375.16;4929655;28;20031;-27
2022/04/04 05:28:07;;;;;;;1.17;0.70;;;;;;;-148.56;100.00;61375.16;4931349;28;20038;-29
2022/04/04 05:30:34;;;;;;;0.60;0.60;;;;;;;-148.56;100.00;61375.16;4928153;28;20024;-27
2022/04/04 05:32:59;;;;;;;0.60;0.60;;;;;;;-148.56;100.00;61375.16;4933511;28;20164;-27
2022/04/04 05:35:25;;;;;;;0.80;0.57;;;;;;;-148.56;100.00;61375.16;4926083;28;20039;-28
2022/04/04 05:37:54;;;;;;;1.42;0.75;;;;;;;-148.56;100.00;61375.16;4928609;28;20501;-29
2022/04/04 05:40:20;;;;;;;0.80;0.60;;;;;;;-148.56;100.00;61375.16;4927585;28;20062;-28
2022/04/04 05:42:46;;;;;;;0.70;0.50;;;;;;;-148.56;100.00;61375.16;4926628;28;20027;-28
2022/04/04 05:45:11;;;;;;;1.05;0.80;;;;;;;-148.56;100.00;61375.16;4925744;28;20032;-28
2022/04/04 05:47:37;;;;;;;0.95;0.60;;;;;;;-148.56;100.00;61375.16;4924036;28;20039;-29
2022/04/04 05:50:03;;;;;;;0.70;0.70;;;;;;;-148.56;100.00;61375.16;4922692;28;20075;-29
2022/04/04 05:52:28;;;;;;;1.02;0.60;;;;;;;-148.56;100.00;61375.16;4930312;28;20035;-29
2022/04/04 05:54:54;;;;;;;0.82;0.63;;;;;;;-148.56;100.00;61375.16;4931531;28;20082;-28
2022/04/04 05:57:30;;;;;;;0.60;0.50;;;;;;;-148.56;100.00;61375.16;4929332;28;20511;-30
2022/04/04 05:59:55;;;;;;;1.30;0.73;;;;;;;-148.56;100.00;61375.16;4932507;28;20046;-28
2022/04/04 06:02:22;;;;;;;2.17;0.90;;;;;;;-148.56;100.00;61375.16;4928676;28;20045;-29
2022/04/04 06:04:48;;;;;;;1.08;0.60;;;;;;;-148.56;100.00;61375.16;4933144;28;20119;-27
2022/04/04 06:07:13;;;;;;;0.60;0.60;;;;;;;-148.56;100.00;61375.16;4928020;28;20031;-28
2022/04/04 06:09:39;;;;;;;0.85;0.50;;;;;;;-148.56;100.00;61375.16;4932751;28;20140;-31
2022/04/04 06:12:04;;;;;;;0.80;0.70;;;;;;;-148.56;100.00;61375.16;4928376;28;20701;-27
2022/04/04 06:14:30;;;;;;;0.68;0.68;;;;;;;-148.56;100.00;61375.16;4928118;28;20089;-28
2022/04/04 06:16:55;;;;;;;0.85;0.70;;;;;;;-148.56;100.00;61375.16;4923808;28;20039;-30
2022/04/04 06:19:21;;;;;;;0.65;0.60;;;;;;;-148.56;100.00;61375.16;4928091;28;20043;-27
2022/04/04 06:21:47;;;;;;;0.70;0.63;;;;;;;-148.56;100.00;61375.16;4927559;28;20498;-27
2022/04/04 06:24:12;;;;;;;1.17;0.65;;;;;;;-148.56;100.00;61375.16;4932402;28;20118;-28
2022/04/04 06:26:39;;;;;;;1.45;0.60;;;;;;;-148.56;100.00;61375.16;4931809;28;20031;-28
2022/04/04 06:29:05;;;;;;;0.77;0.60;;;;;;;-148.56;100.00;61375.16;4929269;28;20031;-27
2022/04/04 06:31:31;;;;;;;0.60;0.50;;;;;;;-148.56;100.00;61375.16;4927654;28;20106;-30
2022/04/04 06:33:56;;;;;;;4.50;0.80;;;;;;;-148.56;100.00;61375.16;4922857;28;20311;-30
2022/04/04 06:36:23;;;;;;;15.27;1.60;;;;;;;-148.56;100.00;61375.16;4928157;28;20042;-29
2022/04/04 06:38:50;;;;;;;3.75;1.00;;;;;;;-148.56;100.00;61375.16;4932545;28;20074;-28
2022/04/04 06:41:16;;;;;;;2.75;0.98;;;;;;;-148.56;100.00;61375.16;4927570;28;20097;-27
2022/04/04 06:43:41;;;;;;;17.20;1.90;;;;;;;-148.56;100.00;61375.16;4925299;28;20706;-27
2022/04/04 06:46:06;;;;;;;2.85;1.27;;;;;;;-148.56;100.00;61375.16;4924637;28;20032;-28
2022/04/04 06:48:32;;;;;;;5.60;1.10;;;;;;;-148.56;100.00;61375.16;4918913;28;21789;-27
2022/04/04 06:50:59;;;;;;;2.13;1.00;;;;;;;-148.56;100.00;61375.16;4917282;28;20039;-27
2022/04/04 06:53:24;;;;;;;2.92;1.05;;;;;;;-148.56;100.00;61375.16;4921566;28;20053;-28
2022/04/04 06:55:50;;;;;;;3.53;1.10;;;;;;;-148.56;100.00;61375.16;4926497;28;20024;-28
2022/04/04 06:58:15;;;;;;;2.90;1.00;;;;;;;-148.56;100.00;61375.16;4924957;28;20438;-29
2022/04/04 07:00:41;;;;;;;3.60;1.00;;;;;;;-148.56;100.00;61375.16;4921408;28;20589;-30
2022/04/04 07:03:08;;;;;;;2.88;1.10;;;;;;;-148.56;100.00;61375.16;4908855;28;20051;-29
2022/04/04 07:05:34;;;;;;;3.70;0.80;;;;;;;-148.56;100.00;61375.16;4930096;28;20028;-29
2022/04/04 07:07:59;;;;;;;1.55;0.80;;;;;;;-148.56;100.00;61375.16;4930871;28;20042;-30
2022/04/04 07:10:25;;;;;;;3.65;0.93;;;;;;;-148.56;100.00;61375.16;4931527;28;20035;-29
2022/04/04 07:12:50;;;;;;;6.38;1.00;;;;;;;-148.56;100.00;61375.16;4926269;28;20689;-28
2022/04/04 07:15:16;;;;;;;2.08;1.00;;;;;;;-148.56;100.00;61375.16;4931977;28;20031;-28
2022/04/04 07:17:42;;;;;;;1.35;0.73;;;;;;;-148.56;100.00;61375.16;4931618;28;20031;-33
2022/04/04 07:20:08;;;;;;;0.90;0.70;;;;;;;-148.56;100.00;61375.16;4931482;28;20511;-29
2022/04/04 07:22:37;;;;;;;1.15;0.80;;;;;;;-148.56;100.00;61375.16;4928340;28;20398;-28
2022/04/04 07:25:04;;;;;;;2.00;0.77;;;;;;;-148.56;100.00;61375.16;4930185;28;20063;-29
2022/04/04 07:27:30;;;;;;;2.83;0.80;;;;;;;-148.56;100.00;61375.16;4928689;28;20514;-28
2022/04/04 07:29:55;;;;;;;1.27;0.90;;;;;;;-148.56;100.00;61375.16;4933535;28;20039;-28
2022/04/04 07:32:21;;;;;;;1.02;0.70;;;;;;;-148.56;100.00;61375.16;4931593;28;20046;-28
2022/04/04 07:34:46;;;;;;;6.63;1.00;;;;;;;-148.56;100.00;61375.16;4926068;28;20040;-30
2022/04/04 07:37:11;;;;;;;1.50;0.93;;;;;;;-148.56;100.00;61375.16;4921994;28;20032;-30
2022/04/04 07:39:37;;;;;;;1.85;1.30;;;;;;;-148.56;100.00;61375.16;4913091;28;20035;-29
2022/04/04 07:42:03;;;;;;;1.05;0.80;;;;;;;-148.56;100.00;61375.16;4912899;28;20062;-30
2022/04/04 07:44:28;;;;;;;1.13;0.90;;;;;;;-148.56;100.00;61375.16;4920682;28;20035;-31
2022/04/04 07:46:54;;;;;;;1.10;0.80;;;;;;;-148.56;100.00;61375.16;4922793;28;20618;-30
2022/04/04 07:49:19;;;;;;;0.70;0.70;;;;;;;-148.56;100.00;61375.16;4920406;28;20074;-29
2022/04/04 07:51:45;;;;;;;1.95;0.70;;;;;;;-148.56;100.00;61375.16;4921394;28;20046;-27
2022/04/04 07:54:11;;;;;;;1.20;0.90;;;;;;;-148.56;100.00;61375.16;4921260;28;20553;-29
2022/04/04 07:56:36;;;;;;;1.33;0.80;;;;;;;-148.56;100.00;61375.16;4923340;28;20027;-25
2022/04/04 07:59:02;;;;;;;0.88;0.80;;;;;;;-148.56;100.00;61375.16;4917270;28;20077;-27
2022/04/04 08:01:27;;;;;;;2.45;1.10;;;;;;;-148.56;100.00;61375.16;4918577;28;20050;-28
2022/04/04 08:03:53;;;;;;;1.08;0.70;;;;;;;-148.56;100.00;61375.16;4916672;28;20083;-29
2022/04/04 08:06:19;;;;;;;3.08;0.75;;;;;;;-148.56;100.00;61375.16;4919294;28;22627;-29
2022/04/04 08:08:44;;;;;;;1.55;0.70;;;;;;;-148.56;100.00;61375.16;4919010;28;20027;-28
2022/04/04 08:11:11;;;;;;;1.42;0.80;;;;;;;-148.56;100.00;61375.16;4921896;28;20548;-30
2022/04/04 08:13:42;;;;;;;0.90;0.70;;;;;;;-148.56;100.00;61375.16;4920522;28;20625;-28
2022/04/04 08:16:08;;;;;;;1.20;0.85;;;;;;;-148.56;100.00;61375.16;4923925;28;20103;-27
2022/04/04 08:18:34;;;;;;;4.50;3.08;;;;;;;-148.56;100.00;61375.16;4916198;28;20043;-28
2022/04/04 08:20:59;;;;;;;9.20;4.47;;;;;;;-148.56;100.00;61375.16;4919591;28;20039;-28
2022/04/04 08:23:29;;;;;;;12.43;4.80;;;;;;;-148.56;100.00;61375.16;4916714;28;20039;-28
2022/04/04 08:25:56;;;;;;;6.00;4.00;;;;;;;-148.56;100.00;61375.16;4920729;28;20035;-28
2022/04/04 08:28:21;;;;;;;8.43;3.47;;;;;;;-148.56;100.00;61375.16;4925682;28;20605;-29
2022/04/04 08:30:47;;;;;;;6.03;2.85;;;;;;;-148.56;100.00;61375.16;4920568;28;20031;-28
2022/04/04 08:33:12;;;;;;;6.70;2.65;;;;;;;-148.56;100.00;61375.16;4924393;28;20126;-29
2022/04/04 08:35:38;;;;;;;8.52;2.60;;;;;;;-148.56;100.00;61375.16;4926627;28;20039;-31
2022/04/04 08:38:03;;;;;;;4.22;2.30;;;;;;;-148.56;100.00;61375.16;4925394;28;20035;-28
2022/04/04 08:40:29;;;;;;;5.30;2.00;;;;;;;-148.56;100.00;61375.16;4925887;28;20043;-27
2022/04/04 08:42:55;;;;;;;4.18;2.30;;;;;;;-148.56;100.00;61375.16;4925937;28;20035;-29
2022/04/04 08:45:20;;;;;;;6.03;2.20;;;;;;;-148.56;100.00;61375.16;4925916;28;20122;-29
2022/04/04 08:47:46;;;;;;;5.93;2.30;;;;;;;-148.56;100.00;61375.16;4919086;28;20050;-28
2022/04/04 08:50:12;;;;;;;7.00;2.10;;;;;;;-148.56;100.00;61375.16;4904037;28;20036;-28
2022/04/04 08:52:38;;;;;;;6.45;2.20;;;;;;;-148.56;100.00;61375.16;4924349;28;20665;-29
2022/04/04 08:55:04;;;;;;;3.08;2.10;;;;;;;-148.56;100.00;61375.16;4935510;28;20048;-28
2022/04/04 08:57:30;;;;;;;7.55;2.00;;;;;;;-148.56;100.00;61375.16;4928088;28;20032;-28
2022/04/04 08:59:55;;;;;;;3.10;1.90;;;;;;;-148.56;100.00;61375.16;4932837;28;20031;-28
2022/04/04 09:02:21;;;;;;;3.60;2.28;;;;;;;-148.56;100.00;61375.16;4928387;28;20886;-26
2022/04/04 09:04:50;;;;;;;4.43;1.73;;;;;;;-148.56;100.00;61375.16;4929142;28;20616;-29
2022/04/04 09:07:16;;;;;;;3.17;1.85;;;;;;;-148.56;100.00;61375.16;4917990;28;20082;-29
2022/04/04 09:09:42;;;;;;;4.53;2.05;;;;;;;-148.56;100.00;61375.16;4920233;28;20042;-26
2022/04/04 09:12:10;;;;;;;8.63;1.92;;;;;;;-148.56;100.00;61375.16;4929432;28;20040;-28
2022/04/04 09:14:38;;;;;;;7.85;2.50;;;;;;;-148.56;100.00;61375.16;4932616;28;20035;-28
2022/04/04 09:17:07;;;;;;;4.72;2.10;;;;;;;-148.56;100.00;61375.16;4934492;28;20040;-27
2022/04/04 09:19:33;;;;;;;9.05;2.42;;;;;;;-148.56;100.00;61375.16;4933832;28;20035;-27
2022/04/04 09:22:12;;;;;;;5.22;2.30;;;;;;;-148.56;100.00;61375.16;4927986;28;20024;-29
2022/04/04 09:25:05;;;;;;;7.00;2.15;;;;;;;-148.56;100.00;61375.16;4932277;28;20035;-28
2022/04/04 09:27:36;;;;;;;3.85;1.67;;;;;;;-148.56;100.00;61375.16;4931378;28;20126;-27
2022/04/04 09:30:06;;;;;;;4.85;2.10;;;;;;;-148.56;100.00;61375.16;4932767;28;20038;-31
2022/04/04 09:32:45;;;;;;;5.53;2.13;;;;;;;-148.56;100.00;61375.16;4929480;28;20118;-28
2022/04/04 09:35:14;;;;;;;6.60;2.13;;;;;;;-148.56;100.00;61375.16;4927034;28;20042;-31
2022/04/04 09:37:47;;;;;;;4.95;2.08;;;;;;;-148.56;100.00;61375.16;4931498;28;20034;-28
2022/04/04 09:40:17;;;;;;;2.80;1.77;;;;;;;-148.56;100.00;61375.16;4925778;28;20039;-29
2022/04/04 09:42:43;;;;;;;5.93;2.13;;;;;;;-148.56;100.00;61375.16;4928958;28;20130;-27
2022/04/04 09:45:12;;;;;;;3.30;1.83;;;;;;;-148.56;100.00;61375.16;4925048;28;20047;-29
2022/04/04 09:47:57;;;;;;;4.90;1.90;;;;;;;-148.56;100.00;61375.16;4928371;28;20023;-28
2022/04/04 09:50:46;;;;;;;3.25;1.90;;;;;;;-148.56;100.00;61375.16;4931135;28;20035;-30
2022/04/04 09:53:19;;;;;;;8.65;3.22;;;;;;;-148.56;100.00;61375.16;4928761;28;20086;-27
2022/04/04 09:55:57;;;;;;;4.65;2.90;;;;;;;-148.56;100.00;61375.16;4928916;28;20032;-27
2022/04/04 09:58:24;;;;;;;5.25;2.70;;;;;;;-148.56;100.00;61375.16;4927669;28;20078;-28
2022/04/04 10:00:50;;;;;;;4.00;1.98;;;;;;;-148.56;100.00;61375.16;4924263;28;20211;-29
2022/04/04 10:03:19;;;;;;;3.08;1.80;;;;;;;-148.56;100.00;61375.16;4925505;28;20036;-28
2022/04/04 10:05:57;;;;;;;6.07;2.00;;;;;;;-148.56;100.00;61375.16;4933001;28;20027;-29
2022/04/04 10:08:26;;;;;;;2.63;1.80;;;;;;;-148.56;100.00;61375.16;4944936;28;20752;-27
2022/04/04 10:10:56;;;;;;;3.58;1.80;;;;;;;-148.56;100.00;61375.16;4925553;28;20063;-28
2022/04/04 10:13:23;;;;;;;8.07;1.75;;;;;;;-148.56;100.00;61375.16;4939833;28;20085;-31
2022/04/04 10:15:48;;;;;;;2.53;1.67;;;;;;;-148.56;100.00;61375.16;4928052;28;20391;-28
2022/04/04 10:18:15;;;;;;;2.78;1.77;;;;;;;-148.56;100.00;61375.16;4945668;28;20079;-28
2022/04/04 10:20:41;;;;;;;4.50;1.42;;;;;;;-148.56;100.00;61375.16;4937363;28;20056;-29
2022/04/04 10:23:07;;;;;;;4.63;1.45;;;;;;;-148.56;100.00;61375.16;4929064;28;20047;-28
2022/04/04 10:25:33;;;;;;;4.60;1.55;;;;;;;-148.56;100.00;61375.16;4928530;28;20042;-30
2022/04/04 10:27:59;;;;;;;5.28;1.67;;;;;;;-148.56;100.00;61375.16;4930492;28;20027;-29
2022/04/04 10:30:34;;;;;;;2.47;1.33;;;;;;;-148.56;100.00;61375.16;4933464;28;20063;-28
2022/04/04 10:33:00;;;;;;;3.63;1.60;;;;;;;-148.56;100.00;61375.16;4929661;28;20171;-30
2022/04/04 10:35:28;;;;;;;7.40;1.60;;;;;;;-148.56;100.00;61375.16;4913653;28;20032;-28
2022/04/04 10:38:05;;;;;;;2.08;1.30;;;;;;;-148.56;100.00;61375.16;4922524;28;20038;-29
2022/04/04 10:40:31;;;;;;;4.55;1.45;;;;;;;-148.56;100.00;61375.16;4922515;28;20037;-27
2022/04/04 10:43:15;;;;;;;2.17;1.70;;;;;;;-148.56;100.00;61375.16;4920528;28;20032;-28
2022/04/04 10:45:53;;;;;;;5.82;1.55;;;;;;;-148.56;100.00;61375.16;4935805;28;20027;-30
2022/04/04 10:48:19;;;;;;;5.28;1.58;;;;;;;-148.56;100.00;61375.16;4919862;28;20071;-27
2022/04/04 10:50:44;;;;;;;3.13;1.30;;;;;;;-148.56;100.00;61375.16;4924350;28;20037;-28
2022/04/04 10:53:10;;;;;;;1.77;1.33;;;;;;;-148.56;100.00;61375.16;4926763;28;20557;-28
2022/04/04 10:55:38;;;;;;;2.95;1.42;;;;;;;-148.56;100.00;61375.16;4922669;28;20027;-30
2022/04/04 10:58:07;;;;;;;6.53;1.67;;;;;;;-148.56;100.00;61375.16;4921733;28;20038;-34
2022/04/04 11:00:34;;;;;;;6.20;2.40;;;;;;;-148.56;100.00;61375.16;4917209;28;20038;-30
2022/04/04 11:03:01;;;;;;;4.88;1.98;;;;;;;-148.56;100.00;61375.16;4918755;28;21034;-30
2022/04/04 11:08:12;;;;;;;5.95;2.35;;;;;;;-148.56;100.00;61375.16;4930102;28;20046;-29
2022/04/04 11:10:41;;;;;;;8.13;2.83;;;;;;;-148.56;100.00;61375.16;4921668;28;20570;-28
2022/04/04 11:13:08;;;;;;;6.35;2.58;;;;;;;-148.56;100.00;61375.16;4923906;28;20126;-30